createdAt,value
2023-03-26T00:01:12.740Z,16.08
2023-03-26T00:03:39.243Z,16.07
2023-03-26T00:06:05.603Z,16.05
2023-03-26T00:08:31.951Z,16.04
2023-03-26T00:10:59.538Z,16.05
2023-03-26T00:13:27.276Z,16.04
2023-03-26T00:15:53.804Z,16.05
2023-03-26T00:18:20.294Z,16.03
2023-03-26T00:20:46.609Z,16.01
2023-03-26T00:23:12.933Z,15.98
2023-03-26T00:25:39.311Z,15.97
2023-03-26T00:28:05.658Z,15.97
2023-03-26T00:30:32.033Z,15.91
2023-03-26T00:32:58.412Z,15.89
2023-03-26T00:35:24.745Z,15.91
2023-03-26T00:37:51.176Z,15.89
2023-03-26T00:40:17.614Z,15.88
2023-03-26T00:42:43.925Z,15.86
2023-03-26T00:45:10.265Z,15.84
2023-03-26T00:47:36.663Z,15.84
2023-03-26T00:50:03.249Z,15.84
2023-03-26T00:52:29.586Z,15.82
2023-03-26T00:54:55.951Z,15.78
2023-03-26T00:57:34.466Z,15.79
2023-03-26T01:00:02.189Z,15.76
2023-03-26T01:02:28.603Z,15.74
2023-03-26T01:04:55.022Z,15.71
2023-03-26T01:07:21.542Z,15.68
2023-03-26T01:09:47.888Z,15.67
2023-03-26T01:12:14.220Z,15.67
2023-03-26T01:14:40.800Z,15.64
2023-03-26T01:17:07.259Z,15.62
2023-03-26T01:19:33.656Z,15.59
2023-03-26T01:22:00.040Z,15.58
2023-03-26T01:24:26.397Z,15.57
2023-03-26T01:26:52.802Z,15.56
2023-03-26T01:29:19.198Z,15.52
2023-03-26T01:31:45.523Z,15.51
2023-03-26T01:34:12.123Z,15.48
2023-03-26T01:36:38.474Z,15.47
2023-03-26T01:39:04.792Z,15.44
2023-03-26T01:41:31.121Z,15.45
2023-03-26T01:43:57.484Z,15.44
2023-03-26T01:46:23.838Z,15.43
2023-03-26T01:48:50.182Z,15.41
2023-03-26T01:51:16.576Z,15.38
2023-03-26T01:53:42.897Z,15.35
2023-03-26T01:56:09.253Z,15.34
2023-03-26T01:58:35.633Z,15.33
2023-03-26T02:01:01.996Z,15.30
2023-03-26T02:03:28.472Z,15.28
2023-03-26T02:05:55.210Z,15.27
2023-03-26T02:08:21.709Z,15.26
2023-03-26T02:10:48.494Z,15.23
2023-03-26T02:13:14.875Z,15.24
2023-03-26T02:15:41.224Z,15.25
2023-03-26T02:18:07.555Z,15.24
2023-03-26T02:20:34.131Z,15.23
2023-03-26T02:23:00.592Z,15.22
2023-03-26T02:25:27.977Z,15.23
2023-03-26T02:27:56.895Z,15.20
2023-03-26T02:30:23.350Z,15.20
2023-03-26T02:32:50.238Z,15.19
2023-03-26T02:35:16.839Z,15.18
2023-03-26T02:37:43.196Z,15.17
2023-03-26T02:40:14.806Z,15.14
2023-03-26T02:42:43.168Z,15.14
2023-03-26T02:45:09.704Z,15.13
2023-03-26T02:48:14.459Z,15.10
2023-03-26T02:50:50.510Z,15.08
2023-03-26T02:53:28.621Z,15.08
2023-03-26T02:56:08.226Z,15.05
2023-03-26T02:58:42.054Z,15.04
2023-03-26T03:01:08.564Z,15.02
2023-03-26T03:03:42.767Z,15.00
2023-03-26T03:06:26.812Z,14.98
2023-03-26T03:08:57.219Z,14.95
2023-03-26T03:11:35.657Z,14.95
2023-03-26T03:14:02.048Z,14.94
2023-03-26T03:16:29.757Z,14.95
2023-03-26T03:18:58.790Z,14.95
2023-03-26T03:21:34.277Z,14.91
2023-03-26T03:24:00.741Z,14.92
2023-03-26T03:26:30.714Z,14.91
2023-03-26T03:29:02.549Z,14.88
2023-03-26T03:31:29.186Z,14.89
2023-03-26T03:34:01.913Z,14.88
2023-03-26T03:36:31.308Z,14.86
2023-03-26T03:39:04.370Z,14.85
2023-03-26T03:41:31.512Z,14.85
2023-03-26T03:44:00.638Z,14.85
2023-03-26T03:46:29.562Z,14.83
2023-03-26T03:48:56.016Z,14.82
2023-03-26T03:51:30.167Z,14.80
2023-03-26T03:53:59.101Z,14.78
2023-03-26T03:56:54.409Z,14.75
2023-03-26T03:59:37.328Z,14.74
2023-03-26T04:02:06.833Z,14.71
2023-03-26T04:04:40.078Z,14.71
2023-03-26T04:07:10.307Z,14.70
2023-03-26T04:09:56.675Z,14.65
2023-03-26T04:12:24.835Z,14.65
2023-03-26T04:15:00.560Z,14.64
2023-03-26T04:17:27.043Z,14.62
2023-03-26T04:19:55.340Z,14.61
2023-03-26T04:22:25.733Z,14.60
2023-03-26T04:24:55.970Z,14.60
2023-03-26T04:27:28.521Z,14.60
2023-03-26T04:30:03.059Z,14.59
2023-03-26T04:32:30.415Z,14.59
2023-03-26T04:34:56.967Z,14.59
2023-03-26T04:37:24.981Z,14.58
2023-03-26T04:40:00.486Z,14.56
2023-03-26T04:42:49.563Z,14.56
2023-03-26T04:45:29.666Z,14.55
2023-03-26T04:47:56.270Z,14.54
2023-03-26T04:50:22.771Z,14.54
2023-03-26T04:52:49.425Z,14.52
2023-03-26T04:55:35.696Z,14.48
2023-03-26T04:58:09.364Z,14.48
2023-03-26T05:00:54.589Z,14.45
2023-03-26T05:03:21.251Z,14.46
2023-03-26T05:05:48.662Z,14.45
2023-03-26T05:08:15.937Z,14.46
2023-03-26T05:10:42.526Z,14.44
2023-03-26T05:13:13.530Z,14.44
2023-03-26T05:15:45.749Z,14.42
2023-03-26T05:18:18.535Z,14.42
2023-03-26T05:20:50.764Z,14.42
2023-03-26T05:23:17.515Z,14.41
2023-03-26T05:25:49.812Z,14.40
2023-03-26T05:28:19.672Z,14.38
2023-03-26T05:31:06.247Z,14.40
2023-03-26T05:33:36.327Z,14.37
2023-03-26T05:36:07.156Z,14.36
2023-03-26T05:38:33.594Z,14.33
2023-03-26T05:41:01.644Z,14.33
2023-03-26T05:43:28.454Z,14.32
2023-03-26T05:46:12.535Z,14.30
2023-03-26T05:48:38.988Z,14.30
2023-03-26T05:51:05.702Z,14.30
2023-03-26T05:53:32.728Z,14.29
2023-03-26T05:56:31.405Z,14.28
2023-03-26T05:59:29.759Z,14.25
2023-03-26T06:02:15.133Z,14.25
2023-03-26T06:05:00.081Z,14.23
2023-03-26T06:07:26.499Z,14.22
2023-03-26T06:10:07.804Z,14.23
2023-03-26T06:12:34.232Z,14.25
2023-03-26T06:15:00.570Z,14.24
2023-03-26T06:17:39.838Z,14.24
2023-03-26T06:20:26.443Z,14.22
2023-03-26T06:22:54.144Z,14.22
2023-03-26T06:25:38.944Z,14.20
2023-03-26T06:28:20.898Z,14.22
2023-03-26T06:31:10.322Z,14.19
2023-03-26T06:33:41.862Z,14.22
2023-03-26T06:36:10.050Z,14.22
2023-03-26T06:38:37.204Z,14.24
2023-03-26T06:41:05.636Z,14.24
2023-03-26T06:43:52.212Z,14.26
2023-03-26T06:46:37.233Z,14.27
2023-03-26T06:49:22.069Z,14.27
2023-03-26T06:52:08.763Z,14.29
2023-03-26T06:55:01.205Z,14.30
2023-03-26T06:57:53.920Z,14.30
2023-03-26T07:00:43.712Z,14.31
2023-03-26T07:03:28.630Z,14.30
2023-03-26T07:06:18.029Z,14.29
2023-03-26T07:09:03.257Z,14.27
2023-03-26T07:11:48.108Z,14.26
2023-03-26T07:14:34.520Z,14.28
2023-03-26T07:17:10.481Z,14.30
2023-03-26T07:19:59.691Z,14.30
2023-03-26T07:22:26.255Z,14.32
2023-03-26T07:25:31.404Z,14.32
2023-03-26T07:28:06.777Z,14.34
2023-03-26T07:31:08.249Z,14.33
2023-03-26T07:33:39.449Z,14.33
2023-03-26T07:36:20.797Z,14.36
2023-03-26T07:39:03.605Z,14.39
2023-03-26T07:41:56.480Z,14.41
2023-03-26T07:45:01.140Z,14.43
2023-03-26T07:47:39.323Z,14.44
2023-03-26T07:50:23.927Z,14.47
2023-03-26T07:53:07.989Z,14.49
2023-03-26T07:55:52.205Z,14.50
2023-03-26T07:58:36.671Z,14.52
2023-03-26T08:01:31.839Z,14.53
2023-03-26T08:03:58.670Z,14.55
2023-03-26T08:07:08.760Z,14.57
2023-03-26T08:09:55.134Z,14.60
2023-03-26T08:12:32.968Z,14.65
2023-03-26T08:14:59.461Z,14.66
2023-03-26T08:17:25.791Z,14.69
2023-03-26T08:19:52.146Z,14.72
2023-03-26T08:22:18.590Z,14.76
2023-03-26T08:24:44.884Z,14.78
2023-03-26T08:27:11.203Z,14.79
2023-03-26T08:29:37.551Z,14.81
2023-03-26T08:32:03.891Z,14.86
2023-03-26T08:34:30.201Z,14.89
2023-03-26T08:36:56.597Z,14.93
2023-03-26T08:39:22.958Z,14.99
2023-03-26T08:41:49.306Z,15.01
2023-03-26T08:44:15.691Z,15.06
2023-03-26T08:46:43.285Z,15.10
2023-03-26T08:49:09.628Z,15.14
2023-03-26T08:51:35.986Z,15.17
2023-03-26T08:54:02.304Z,15.23
2023-03-26T08:56:28.663Z,15.27
2023-03-26T08:58:57.141Z,15.32
2023-03-26T09:01:23.472Z,15.37
2023-03-26T09:03:49.874Z,15.43
2023-03-26T09:06:17.757Z,15.48
2023-03-26T09:08:54.073Z,15.55
2023-03-26T09:11:21.129Z,15.59
2023-03-26T09:13:47.514Z,15.64
2023-03-26T09:16:13.832Z,15.70
2023-03-26T09:18:41.521Z,15.74
2023-03-26T09:21:07.846Z,15.79
2023-03-26T09:23:34.162Z,15.85
2023-03-26T09:26:00.516Z,15.89
2023-03-26T09:28:26.864Z,15.93
2023-03-26T09:30:53.499Z,15.97
2023-03-26T09:33:20.149Z,16.02
2023-03-26T09:35:46.485Z,16.07
2023-03-26T09:38:12.832Z,16.11
2023-03-26T09:40:39.210Z,16.16
2023-03-26T09:43:05.527Z,16.20
2023-03-26T09:45:31.994Z,16.24
2023-03-26T09:47:58.456Z,16.28
2023-03-26T09:50:24.813Z,16.33
2023-03-26T09:52:51.136Z,16.37
2023-03-26T09:55:17.514Z,16.42
2023-03-26T09:57:43.860Z,16.46
2023-03-26T10:00:10.185Z,16.50
2023-03-26T10:02:46.180Z,16.55
2023-03-26T10:05:13.815Z,16.60
2023-03-26T10:07:40.182Z,16.65
2023-03-26T10:10:06.491Z,16.67
2023-03-26T10:12:32.879Z,16.72
2023-03-26T10:14:59.232Z,16.76
2023-03-26T10:17:25.663Z,16.82
2023-03-26T10:19:52.173Z,16.87
2023-03-26T10:22:19.146Z,16.92
2023-03-26T10:24:45.487Z,16.97
2023-03-26T10:27:11.800Z,17.00
2023-03-26T10:29:38.169Z,17.02
2023-03-26T10:32:04.477Z,17.06
2023-03-26T10:34:30.787Z,17.11
2023-03-26T10:36:57.196Z,17.18
2023-03-26T10:39:37.967Z,17.22
2023-03-26T10:42:05.738Z,17.25
2023-03-26T10:44:32.077Z,17.28
2023-03-26T10:46:58.417Z,17.32
2023-03-26T10:49:24.797Z,17.35
2023-03-26T10:51:51.128Z,17.42
2023-03-26T10:54:19.237Z,17.52
2023-03-26T10:56:45.645Z,17.57
2023-03-26T10:59:11.966Z,17.61
2023-03-26T11:01:38.327Z,17.65
2023-03-26T11:04:04.726Z,17.71
2023-03-26T11:06:31.045Z,17.76
2023-03-26T11:08:57.407Z,17.81
2023-03-26T11:11:23.780Z,17.86
2023-03-26T11:13:50.110Z,17.92
2023-03-26T11:16:16.527Z,17.98
2023-03-26T11:18:43.051Z,18.03
2023-03-26T11:21:19.717Z,18.07
2023-03-26T11:23:46.946Z,18.13
2023-03-26T11:26:13.304Z,18.17
2023-03-26T11:28:41.635Z,18.21
2023-03-26T11:31:28.836Z,18.27
2023-03-26T11:33:55.997Z,18.31
2023-03-26T11:36:22.409Z,18.22
2023-03-26T11:38:48.821Z,18.39
2023-03-26T11:41:22.851Z,18.42
2023-03-26T11:43:59.555Z,18.47
2023-03-26T11:46:29.224Z,18.51
2023-03-26T11:48:55.624Z,18.56
2023-03-26T11:51:21.976Z,18.60
2023-03-26T11:53:48.296Z,18.63
2023-03-26T11:56:14.654Z,18.67
2023-03-26T11:58:40.998Z,18.71
2023-03-26T12:01:07.396Z,18.76
2023-03-26T12:03:33.769Z,18.80
2023-03-26T12:06:00.141Z,18.84
2023-03-26T12:08:26.447Z,18.87
2023-03-26T12:10:52.908Z,18.92
2023-03-26T12:13:19.388Z,18.95
2023-03-26T12:15:45.704Z,18.99
2023-03-26T12:18:12.113Z,19.03
2023-03-26T12:20:38.476Z,19.08
2023-03-26T12:23:04.801Z,19.10
2023-03-26T12:25:32.804Z,19.18
2023-03-26T12:27:59.176Z,19.21
2023-03-26T12:30:25.519Z,19.25
2023-03-26T12:32:53.289Z,19.27
2023-03-26T12:35:20.109Z,19.32
2023-03-26T12:37:46.419Z,19.36
2023-03-26T12:40:15.985Z,19.39
2023-03-26T12:44:48.504Z,19.43
2023-03-26T12:45:31.012Z,19.46
2023-03-26T12:48:04.064Z,19.49
2023-03-26T12:50:34.455Z,19.49
2023-03-26T12:53:01.851Z,19.53
2023-03-26T12:55:28.160Z,19.57
2023-03-26T12:57:54.566Z,19.61
2023-03-26T13:00:20.974Z,19.65
2023-03-26T13:02:47.413Z,19.68
2023-03-26T13:05:13.881Z,19.69
2023-03-26T13:07:40.247Z,19.74
2023-03-26T13:10:06.621Z,19.76
2023-03-26T13:12:32.957Z,19.78
2023-03-26T13:15:00.375Z,19.82
2023-03-26T13:17:26.761Z,19.86
2023-03-26T13:19:53.104Z,19.87
2023-03-26T13:22:19.460Z,19.91
2023-03-26T13:24:46.712Z,19.92
2023-03-26T13:27:13.045Z,19.95
2023-03-26T13:29:39.397Z,19.99
2023-03-26T13:32:05.826Z,20.02
2023-03-26T13:34:32.229Z,20.00
2023-03-26T13:36:58.630Z,19.92
2023-03-26T13:39:24.976Z,19.88
2023-03-26T13:41:51.295Z,19.89
2023-03-26T13:44:17.669Z,19.92
2023-03-26T13:46:44.068Z,19.95
2023-03-26T13:49:10.448Z,19.99
2023-03-26T13:51:36.894Z,20.02
2023-03-26T13:54:03.218Z,20.05
2023-03-26T13:56:29.525Z,20.09
2023-03-26T13:58:56.014Z,20.12
2023-03-26T14:01:22.386Z,20.15
2023-03-26T14:03:48.752Z,20.17
2023-03-26T14:06:15.179Z,20.17
2023-03-26T14:08:41.569Z,20.21
2023-03-26T14:11:07.938Z,20.24
2023-03-26T14:13:34.303Z,20.27
2023-03-26T14:16:00.667Z,20.29
2023-03-26T14:18:26.999Z,20.31
2023-03-26T14:20:53.459Z,20.34
2023-03-26T14:23:19.853Z,20.35
2023-03-26T14:25:46.150Z,20.37
2023-03-26T14:28:12.507Z,20.37
2023-03-26T14:30:38.836Z,20.39
2023-03-26T14:33:05.253Z,20.41
2023-03-26T14:35:31.688Z,20.40
2023-03-26T14:37:58.039Z,20.43
2023-03-26T14:40:24.357Z,20.43
2023-03-26T14:42:50.749Z,20.42
2023-03-26T14:45:17.070Z,20.43
2023-03-26T14:47:43.497Z,20.46
2023-03-26T14:50:09.927Z,20.48
2023-03-26T14:52:36.242Z,20.50
2023-03-26T14:55:02.542Z,20.50
2023-03-26T14:57:28.902Z,20.51
2023-03-26T14:59:55.237Z,20.52
2023-03-26T15:02:21.687Z,20.53
2023-03-26T15:04:48.181Z,20.53
2023-03-26T15:07:14.489Z,20.53
2023-03-26T15:09:40.828Z,20.56
2023-03-26T15:12:12.157Z,20.56
2023-03-26T15:14:39.656Z,20.56
2023-03-26T15:17:06.070Z,20.55
2023-03-26T15:19:32.409Z,20.54
2023-03-26T15:21:58.726Z,20.55
2023-03-26T15:24:25.024Z,20.55
2023-03-26T15:26:51.391Z,20.56
2023-03-26T15:29:17.716Z,20.56
2023-03-26T15:31:44.057Z,20.59
2023-03-26T15:34:10.435Z,20.60
2023-03-26T15:36:36.936Z,20.61
2023-03-26T15:39:03.304Z,20.61
2023-03-26T15:41:29.681Z,20.59
2023-03-26T15:44:23.111Z,20.57
2023-03-26T15:46:42.549Z,20.56
2023-03-26T15:49:09.748Z,20.56
2023-03-26T15:51:47.142Z,20.56
2023-03-26T15:54:14.105Z,20.58
2023-03-26T15:56:40.477Z,20.56
2023-03-26T15:59:06.877Z,20.54
2023-03-26T16:01:33.313Z,20.52
2023-03-26T16:03:59.747Z,20.52
2023-03-26T16:06:26.130Z,20.51
2023-03-26T16:08:52.500Z,20.47
2023-03-26T16:11:18.824Z,20.46
2023-03-26T16:13:45.131Z,20.47
2023-03-26T16:16:11.532Z,20.45
2023-03-26T16:18:37.953Z,20.43
2023-03-26T16:21:04.324Z,20.42
2023-03-26T16:23:30.745Z,20.36
2023-03-26T16:25:57.062Z,20.36
2023-03-26T16:28:23.384Z,20.34
2023-03-26T16:30:49.770Z,20.33
2023-03-26T16:33:16.134Z,20.30
2023-03-26T16:35:42.480Z,20.28
2023-03-26T16:38:08.866Z,20.22
2023-03-26T16:40:35.196Z,20.21
2023-03-26T16:43:01.578Z,20.18
2023-03-26T16:45:27.940Z,20.15
2023-03-26T16:47:54.271Z,20.19
2023-03-26T16:50:20.644Z,20.17
2023-03-26T16:52:47.050Z,20.15
2023-03-26T16:55:13.412Z,20.12
2023-03-26T16:57:39.741Z,20.11
2023-03-26T17:00:07.469Z,20.09
2023-03-26T17:02:34.146Z,20.06
2023-03-26T17:05:00.533Z,20.02
2023-03-26T17:07:26.949Z,20.00
2023-03-26T17:09:53.285Z,19.98
2023-03-26T17:12:19.636Z,19.93
2023-03-26T17:14:46.005Z,19.91
2023-03-26T17:17:12.392Z,19.88
2023-03-26T17:19:38.748Z,19.86
2023-03-26T17:22:05.115Z,19.84
2023-03-26T17:24:31.451Z,19.82
2023-03-26T17:27:29.770Z,19.78
2023-03-26T17:29:56.253Z,19.76
2023-03-26T17:32:22.590Z,19.76
2023-03-26T17:34:48.977Z,19.75
2023-03-26T17:37:15.375Z,19.74
2023-03-26T17:39:41.710Z,19.70
2023-03-26T17:42:08.096Z,19.68
2023-03-26T17:44:34.422Z,19.67
2023-03-26T17:47:00.726Z,19.65
2023-03-26T17:49:27.104Z,19.64
2023-03-26T17:51:53.431Z,19.63
2023-03-26T17:54:19.751Z,19.62
2023-03-26T17:56:46.142Z,19.61
2023-03-26T17:59:12.617Z,19.58
2023-03-26T18:01:39.038Z,19.57
2023-03-26T18:04:05.424Z,19.55
2023-03-26T18:06:31.746Z,19.52
2023-03-26T18:08:58.085Z,19.50
2023-03-26T18:11:24.446Z,19.48
2023-03-26T18:13:50.771Z,19.46
2023-03-26T18:16:17.168Z,19.44
2023-03-26T18:18:43.533Z,19.42
2023-03-26T18:21:09.863Z,19.39
2023-03-26T18:23:36.176Z,19.37
2023-03-26T18:26:03.017Z,19.35
2023-03-26T18:28:29.405Z,19.32
2023-03-26T18:30:55.867Z,19.30
2023-03-26T18:33:22.279Z,19.26
2023-03-26T18:35:48.607Z,19.24
2023-03-26T18:38:15.017Z,19.22
2023-03-26T18:40:41.365Z,19.19
2023-03-26T18:43:07.674Z,19.17
2023-03-26T18:45:34.023Z,19.14
2023-03-26T18:48:00.463Z,19.13
2023-03-26T18:50:26.800Z,19.09
2023-03-26T18:52:53.112Z,19.05
2023-03-26T18:55:19.491Z,19.04
2023-03-26T18:57:45.821Z,19.01
2023-03-26T19:00:12.149Z,18.99
2023-03-26T19:02:38.593Z,18.95
2023-03-26T19:05:04.970Z,18.93
2023-03-26T19:07:31.282Z,18.89
2023-03-26T19:09:57.637Z,18.85
2023-03-26T19:12:23.962Z,18.82
2023-03-26T19:14:50.293Z,18.79
2023-03-26T19:17:16.677Z,18.77
2023-03-26T19:19:42.994Z,18.73
2023-03-26T19:22:09.326Z,18.70
2023-03-26T19:24:35.708Z,18.64
2023-03-26T19:27:02.020Z,18.62
2023-03-26T19:29:28.423Z,18.59
2023-03-26T19:31:54.802Z,18.56
2023-03-26T19:34:21.138Z,18.54
2023-03-26T19:36:47.480Z,18.53
2023-03-26T19:39:17.352Z,18.51
2023-03-26T19:41:47.972Z,18.47
2023-03-26T19:44:14.302Z,18.45
2023-03-26T19:46:53.656Z,18.43
2023-03-26T19:49:28.438Z,18.40
2023-03-26T19:51:54.892Z,18.39
2023-03-26T19:54:21.280Z,18.37
2023-03-26T19:56:47.714Z,18.34
2023-03-26T19:59:14.046Z,18.32
2023-03-26T20:01:40.417Z,18.33
2023-03-26T20:04:06.934Z,18.32
2023-03-26T20:06:43.249Z,18.28
2023-03-26T20:09:10.414Z,18.26
2023-03-26T20:11:36.732Z,18.24
2023-03-26T20:14:03.062Z,18.21
2023-03-26T20:16:29.441Z,18.17
2023-03-26T20:18:55.781Z,18.14
2023-03-26T20:21:22.122Z,18.12
2023-03-26T20:23:48.482Z,18.09
2023-03-26T20:26:14.867Z,18.02
2023-03-26T20:28:48.382Z,18.03
2023-03-26T20:31:15.160Z,17.97
2023-03-26T20:33:41.493Z,17.95
2023-03-26T20:36:07.852Z,17.93
2023-03-26T20:38:39.352Z,17.93
2023-03-26T20:41:06.392Z,17.90
2023-03-26T20:43:32.707Z,17.90
2023-03-26T20:45:59.079Z,17.88
2023-03-26T20:48:25.401Z,17.85
2023-03-26T20:50:51.740Z,17.82
2023-03-26T20:53:18.128Z,17.79
2023-03-26T20:55:44.454Z,17.76
2023-03-26T20:58:10.780Z,17.72
2023-03-26T21:00:37.303Z,17.69
2023-03-26T21:03:03.809Z,17.66
2023-03-26T21:05:30.174Z,17.63
2023-03-26T21:07:56.681Z,17.62
2023-03-26T21:10:22.993Z,17.59
2023-03-26T21:12:49.390Z,17.57
2023-03-26T21:15:23.030Z,17.54
2023-03-26T21:17:50.171Z,17.50
2023-03-26T21:20:16.591Z,17.48
2023-03-26T21:22:42.932Z,17.46
2023-03-26T21:25:09.255Z,17.43
2023-03-26T21:27:35.633Z,17.39
2023-03-26T21:30:01.957Z,17.37
2023-03-26T21:32:28.319Z,17.36
2023-03-26T21:37:23.915Z,17.31
2023-03-26T21:39:50.239Z,17.27
2023-03-26T21:42:16.601Z,17.25
2023-03-26T21:44:42.946Z,17.23
2023-03-26T21:47:09.908Z,17.20
2023-03-26T21:49:36.426Z,17.19
2023-03-26T21:52:02.726Z,17.15
2023-03-26T21:54:29.044Z,17.18
2023-03-26T21:56:55.443Z,17.17
2023-03-26T21:59:21.781Z,17.17
2023-03-26T22:01:48.156Z,17.18
2023-03-26T22:04:14.548Z,17.17
2023-03-26T22:06:40.867Z,17.18
2023-03-26T22:09:07.219Z,17.15
2023-03-26T22:11:33.573Z,17.14
2023-03-26T22:13:59.893Z,17.10
2023-03-26T22:16:26.225Z,17.06
2023-03-26T22:18:52.620Z,17.05
2023-03-26T22:21:18.941Z,17.02
2023-03-26T22:23:45.255Z,17.01
2023-03-26T22:26:11.598Z,16.98
2023-03-26T22:28:37.904Z,16.97
2023-03-26T22:31:04.318Z,16.95
2023-03-26T22:33:30.712Z,16.93
2023-03-26T22:35:57.088Z,16.93
2023-03-26T22:38:23.458Z,16.89
2023-03-26T22:40:49.812Z,16.86
2023-03-26T22:43:16.145Z,16.86
2023-03-26T22:45:42.476Z,16.83
2023-03-26T22:48:09.028Z,16.81
2023-03-26T22:50:35.377Z,16.80
2023-03-26T22:53:01.753Z,16.77
2023-03-26T22:55:29.735Z,16.77
2023-03-26T22:57:56.411Z,16.74
2023-03-26T23:00:22.802Z,16.73
2023-03-26T23:02:49.227Z,16.71
2023-03-26T23:05:15.551Z,16.68
2023-03-26T23:07:41.919Z,16.66
2023-03-26T23:10:08.279Z,16.63
2023-03-26T23:12:34.590Z,16.60
2023-03-26T23:15:00.973Z,16.56
2023-03-26T23:17:27.385Z,16.57
2023-03-26T23:19:53.714Z,16.54
2023-03-26T23:22:20.064Z,16.55
2023-03-26T23:24:46.428Z,16.53
2023-03-26T23:27:12.831Z,16.50
2023-03-26T23:29:39.155Z,16.50
2023-03-26T23:32:24.166Z,16.49
2023-03-26T23:34:52.267Z,16.45
2023-03-26T23:37:19.168Z,16.45
2023-03-26T23:39:45.497Z,16.41
2023-03-26T23:42:11.886Z,16.40
2023-03-26T23:44:38.241Z,16.39
2023-03-26T23:47:04.569Z,16.37
2023-03-26T23:49:30.920Z,16.35
2023-03-26T23:51:57.302Z,16.34
2023-03-26T23:54:23.611Z,16.34
2023-03-26T23:56:50.024Z,16.33
2023-03-26T23:59:16.634Z,16.33
